Time;durP1;ratioP1;P1;durP2;ratioP2;P2;SDS_P1;SDS_P2;PMS_P1;PMS_P2;Temp;Humidity;BMP_temperature;BMP_pressure;BME280_temperature;BME280_humidity;BME280_pressure;Samples;Min_cycle;Max_cycle;Signal;HPM_P1;HPM_P2
2023/01/10 00:02:19;;;;;;;24.10;16.90;;;7.50;99.90;;;;;;4992231;28;20639;-70
2023/01/10 00:04:48;;;;;;;27.27;17.57;;;7.50;99.90;;;;;;4992295;28;20192;-70
2023/01/10 00:07:18;;;;;;;29.10;17.80;;;7.50;99.90;;;;;;4992198;28;20226;-70
2023/01/10 00:09:47;;;;;;;28.10;19.13;;;7.50;99.90;;;;;;4992163;28;20203;-70
2023/01/10 00:15:02;;;;;;;28.87;18.33;;;7.60;99.90;;;;;;4995885;28;20611;-71
2023/01/10 00:17:30;;;;;;;26.37;16.57;;;7.60;99.90;;;;;;4995862;28;20192;-70
2023/01/10 00:19:59;;;;;;;23.40;17.40;;;7.50;99.90;;;;;;4995856;28;20196;-71
2023/01/10 00:22:29;;;;;;;25.50;16.77;;;7.60;99.90;;;;;;4995756;28;20237;-70
2023/01/10 00:24:58;;;;;;;22.73;15.33;;;7.60;99.90;;;;;;4995593;28;20211;-70
2023/01/10 00:27:27;;;;;;;25.40;16.07;;;7.60;99.90;;;;;;4995818;28;20254;-70
2023/01/10 00:29:59;;;;;;;22.37;15.67;;;7.60;99.90;;;;;;4995566;28;20200;-70
2023/01/10 00:32:28;;;;;;;23.83;16.30;;;7.50;99.90;;;;;;4995574;28;20561;-70
2023/01/10 00:34:56;;;;;;;23.37;15.90;;;7.60;99.90;;;;;;4995536;28;20192;-70
2023/01/10 00:37:25;;;;;;;24.17;15.87;;;7.60;99.90;;;;;;4995460;28;20195;-70
2023/01/10 00:39:55;;;;;;;20.47;14.80;;;7.70;99.90;;;;;;4995342;28;20215;-70
2023/01/10 00:45:11;;;;;;;21.80;14.33;;;7.70;99.90;;;;;;4995315;28;20219;-70
2023/01/10 00:47:40;;;;;;;22.07;14.30;;;7.70;99.90;;;;;;4995329;28;20222;-70
2023/01/10 00:50:09;;;;;;;19.50;13.57;;;7.60;99.90;;;;;;4995193;28;20192;-70
2023/01/10 00:52:38;;;;;;;21.30;13.70;;;7.60;99.90;;;;;;4995251;28;20283;-70
2023/01/10 00:55:10;;;;;;;20.87;14.63;;;7.60;99.90;;;;;;4995059;28;20615;-70
2023/01/10 00:57:39;;;;;;;19.17;13.17;;;7.50;99.90;;;;;;4994952;28;20243;-70
2023/01/10 01:00:09;;;;;;;21.13;14.40;;;7.60;99.90;;;;;;4993876;28;20275;-70
2023/01/10 01:02:38;;;;;;;24.73;13.60;;;7.60;99.90;;;;;;4995055;28;20195;-70
2023/01/10 01:05:07;;;;;;;19.10;13.27;;;7.60;99.90;;;;;;4994967;28;20258;-70
2023/01/10 01:07:36;;;;;;;19.27;13.30;;;7.60;99.90;;;;;;4994875;28;20223;-70
2023/01/10 01:12:54;;;;;;;20.17;14.10;;;7.60;99.90;;;;;;4994882;28;20188;-70
2023/01/10 01:15:24;;;;;;;18.10;13.20;;;7.50;99.90;;;;;;4994870;28;20198;-70
2023/01/10 01:17:52;;;;;;;17.17;12.77;;;7.60;99.90;;;;;;4994701;28;20206;-70
2023/01/10 01:20:21;;;;;;;16.93;12.43;;;7.60;99.90;;;;;;4994801;28;20266;-70
2023/01/10 01:22:50;;;;;;;16.03;12.63;;;7.50;99.90;;;;;;4994577;28;20195;-71
2023/01/10 01:25:34;;;;;;;16.17;12.47;;;7.50;99.90;;;;;;4994025;28;20279;-70
2023/01/10 01:28:04;;;;;;;16.17;12.00;;;7.50;99.90;;;;;;4994401;28;20319;-70
2023/01/10 01:30:33;;;;;;;18.13;13.00;;;7.60;99.90;;;;;;4994689;28;20673;-70
2023/01/10 01:33:02;;;;;;;18.03;12.47;;;7.60;99.90;;;;;;4994515;28;20271;-70
2023/01/10 01:35:32;;;;;;;17.40;11.93;;;7.60;99.90;;;;;;4994518;28;20206;-71
2023/01/10 01:38:00;;;;;;;17.77;12.43;;;7.60;99.90;;;;;;4994380;28;20574;-70
2023/01/10 01:40:29;;;;;;;16.67;11.63;;;7.70;99.90;;;;;;4994292;28;20200;-71
2023/01/10 01:42:58;;;;;;;21.10;11.87;;;7.70;99.90;;;;;;4994274;28;20216;-70
2023/01/10 01:45:40;;;;;;;15.77;11.57;;;7.60;99.90;;;;;;4994221;28;20254;-70
2023/01/10 01:48:35;;;;;;;16.17;12.10;;;7.70;99.90;;;;;;4994086;28;20212;-70
2023/01/10 01:51:10;;;;;;;21.53;13.80;;;7.70;99.90;;;;;;4994204;28;20196;-70
2023/01/10 01:53:44;;;;;;;23.77;15.57;;;7.70;99.90;;;;;;4993991;28;20245;-70
2023/01/10 01:56:17;;;;;;;25.87;15.40;;;7.60;99.90;;;;;;4992424;28;20666;-70
2023/01/10 01:58:50;;;;;;;21.63;15.27;;;7.60;99.90;;;;;;4994003;28;20276;-70
2023/01/10 02:01:21;;;;;;;23.67;14.50;;;7.70;99.90;;;;;;4993941;28;20661;-70
2023/01/10 02:03:54;;;;;;;19.20;13.00;;;7.70;99.90;;;;;;4993904;28;20198;-70
2023/01/10 02:06:25;;;;;;;18.73;12.07;;;7.70;99.90;;;;;;4993866;28;20227;-70
2023/01/10 02:09:00;;;;;;;15.20;10.37;;;7.70;99.90;;;;;;4993730;28;20234;-71
2023/01/10 02:11:30;;;;;;;16.40;11.07;;;7.70;99.90;;;;;;4993663;28;20199;-70
2023/01/10 02:14:00;;;;;;;15.50;10.73;;;7.70;99.90;;;;;;4992655;28;20630;-70
2023/01/10 02:16:30;;;;;;;15.83;11.10;;;7.70;99.90;;;;;;4993581;28;20203;-71
2023/01/10 02:18:59;;;;;;;17.93;10.97;;;7.70;99.90;;;;;;4993577;28;20543;-71
2023/01/10 02:21:55;;;;;;;15.83;10.63;;;7.70;99.90;;;;;;4993634;28;20283;-71
2023/01/10 02:24:51;;;;;;;15.37;10.80;;;7.60;99.90;;;;;;4993900;28;20216;-70
2023/01/10 02:27:25;;;;;;;16.37;11.17;;;7.60;99.90;;;;;;4993679;28;20206;-71
2023/01/10 02:30:44;;;;;;;16.00;10.70;;;7.60;99.90;;;;;;4993275;28;20713;-70
2023/01/10 02:33:21;;;;;;;19.70;11.10;;;7.60;99.90;;;;;;4952392;28;20204;-70
2023/01/10 02:36:05;;;;;;;17.77;10.50;;;7.60;99.90;;;;;;4951674;28;20205;-71
2023/01/10 02:38:46;;;;;;;16.17;10.57;;;7.60;99.90;;;;;;4952359;28;20675;-70
2023/01/10 02:41:22;;;;;;;15.83;10.80;;;7.60;99.90;;;;;;4952334;28;20205;-70
2023/01/10 02:43:56;;;;;;;15.37;11.33;;;7.60;99.90;;;;;;4952298;28;20213;-70
2023/01/10 02:46:28;;;;;;;14.10;10.63;;;7.60;99.90;;;;;;4952387;29;20283;-70
2023/01/10 02:48:58;;;;;;;17.83;11.07;;;7.60;99.90;;;;;;4952436;28;20264;-70
2023/01/10 02:51:28;;;;;;;19.57;12.00;;;7.60;99.90;;;;;;4952301;28;20236;-71
2023/01/10 02:54:02;;;;;;;16.07;10.80;;;7.60;99.90;;;;;;4952239;28;20220;-70
2023/01/10 02:57:21;;;;;;;18.67;10.87;;;7.50;99.90;;;;;;4951933;28;20253;-71
2023/01/10 03:00:27;;;;;;;15.83;10.80;;;7.50;99.90;;;;;;4914150;29;20206;-71
2023/01/10 03:03:31;;;;;;;15.20;11.43;;;7.60;99.90;;;;;;4857800;29;20700;-69
2023/01/10 03:06:14;;;;;;;17.50;10.83;;;7.60;99.90;;;;;;4803145;29;20717;-69
2023/01/10 03:08:49;;;;;;;18.27;10.73;;;7.50;99.90;;;;;;4803106;29;20281;-69
2023/01/10 03:11:38;;;;;;;14.43;11.03;;;7.50;99.90;;;;;;4833015;29;20223;-70
2023/01/10 03:14:12;;;;;;;19.17;11.07;;;7.50;99.90;;;;;;4839552;29;20284;-69
2023/01/10 03:16:44;;;;;;;14.70;10.97;;;7.60;99.90;;;;;;4839381;29;20223;-69
2023/01/10 03:19:17;;;;;;;17.30;12.07;;;7.60;99.90;;;;;;4839504;29;20287;-70
2023/01/10 03:21:52;;;;;;;17.40;10.60;;;7.60;99.90;;;;;;4839307;29;20216;-70
2023/01/10 03:24:27;;;;;;;16.07;10.47;;;7.60;99.90;;;;;;4839290;29;20221;-69
2023/01/10 03:27:01;;;;;;;15.37;11.23;;;7.60;99.90;;;;;;4839195;29;20215;-69
2023/01/10 03:29:42;;;;;;;16.63;10.10;;;7.60;99.90;;;;;;4839205;29;20252;-69
2023/01/10 03:32:13;;;;;;;16.83;10.87;;;7.60;99.90;;;;;;4839198;29;20205;-69
2023/01/10 03:34:42;;;;;;;17.77;11.47;;;7.60;99.90;;;;;;4839385;29;20679;-69
2023/01/10 03:37:15;;;;;;;15.57;10.40;;;7.60;99.90;;;;;;4868009;29;20687;-69
2023/01/10 03:39:53;;;;;;;19.43;10.83;;;7.60;99.90;;;;;;4930107;29;20216;-70
2023/01/10 03:44:42;;;;;;;17.57;10.57;;;7.50;99.90;;;;;;4945911;28;20230;-69
2023/01/10 03:45:22;;;;;;;17.60;11.87;;;7.40;99.90;;;;;;4992557;28;20686;-69
2023/01/10 03:47:54;;;;;;;19.10;11.70;;;7.40;99.90;;;;;;4994487;28;20254;-70
2023/01/10 03:50:25;;;;;;;17.47;12.07;;;7.50;99.90;;;;;;4996421;28;20215;-69
2023/01/10 03:52:55;;;;;;;17.60;11.70;;;7.50;99.90;;;;;;4996479;28;20210;-70
2023/01/10 03:55:28;;;;;;;19.53;11.80;;;7.50;99.90;;;;;;4996188;28;20738;-70
2023/01/10 03:57:57;;;;;;;16.63;11.43;;;7.50;99.90;;;;;;4996303;28;20235;-69
2023/01/10 04:00:26;;;;;;;15.23;11.23;;;7.60;99.90;;;;;;4996354;28;20204;-69
2023/01/10 04:02:57;;;;;;;15.73;11.30;;;7.50;99.90;;;;;;4996383;28;20188;-70
2023/01/10 04:05:26;;;;;;;15.87;12.30;;;7.50;99.90;;;;;;4996275;28;20204;-69
2023/01/10 04:07:56;;;;;;;16.97;11.33;;;7.50;99.90;;;;;;4996238;28;20268;-70
2023/01/10 04:10:25;;;;;;;20.57;11.70;;;7.50;99.90;;;;;;4996011;28;20231;-70
2023/01/10 04:12:54;;;;;;;18.57;11.23;;;7.50;99.90;;;;;;4996122;28;20279;-70
2023/01/10 04:15:23;;;;;;;18.33;12.43;;;7.60;99.90;;;;;;4994842;28;20286;-70
2023/01/10 04:17:52;;;;;;;20.90;13.37;;;7.50;99.90;;;;;;4996003;28;20215;-70
2023/01/10 04:20:21;;;;;;;15.47;11.13;;;7.50;99.90;;;;;;4996096;28;20210;-70
2023/01/10 04:22:50;;;;;;;20.43;12.43;;;7.40;99.90;;;;;;4995893;28;20200;-71
2023/01/10 04:25:20;;;;;;;20.23;11.70;;;7.40;99.90;;;;;;4995768;28;20199;-71
2023/01/10 04:27:50;;;;;;;18.87;11.60;;;7.40;99.90;;;;;;4995874;28;20203;-71
2023/01/10 04:30:20;;;;;;;19.93;11.93;;;7.40;99.90;;;;;;4995809;28;20224;-70
2023/01/10 04:32:48;;;;;;;17.43;12.07;;;7.30;99.90;;;;;;4995728;28;20288;-71
2023/01/10 04:35:17;;;;;;;17.07;11.43;;;7.30;99.90;;;;;;4995643;28;20211;-70
2023/01/10 04:37:46;;;;;;;18.53;10.57;;;7.30;99.90;;;;;;4995738;28;20227;-70
2023/01/10 04:40:18;;;;;;;19.97;11.47;;;7.30;99.90;;;;;;4995617;28;20238;-71
2023/01/10 04:42:48;;;;;;;20.80;11.17;;;7.30;99.90;;;;;;4995706;28;20207;-70
2023/01/10 04:45:19;;;;;;;15.73;10.63;;;7.30;99.90;;;;;;4995604;28;20285;-70
2023/01/10 04:47:50;;;;;;;16.47;11.00;;;7.40;99.90;;;;;;4995521;28;20219;-70
2023/01/10 04:50:19;;;;;;;15.17;9.83;;;7.40;99.90;;;;;;4995341;28;20219;-71
2023/01/10 04:52:48;;;;;;;14.43;10.63;;;7.40;99.90;;;;;;4995424;28;20195;-70
2023/01/10 04:55:20;;;;;;;16.00;9.67;;;7.40;99.90;;;;;;4995158;28;20210;-70
2023/01/10 04:57:50;;;;;;;13.33;9.97;;;7.40;99.90;;;;;;4995029;28;20294;-70
2023/01/10 05:00:19;;;;;;;13.70;9.73;;;7.30;99.90;;;;;;4994246;28;20199;-70
2023/01/10 05:02:48;;;;;;;17.37;10.10;;;7.30;99.90;;;;;;4995251;28;20723;-71
2023/01/10 05:05:17;;;;;;;15.20;9.80;;;7.30;99.90;;;;;;4995192;28;20199;-70
2023/01/10 05:07:47;;;;;;;16.70;9.77;;;7.30;99.90;;;;;;4995136;28;20203;-70
2023/01/10 05:10:16;;;;;;;17.33;9.83;;;7.30;99.90;;;;;;4994885;28;20220;-71
2023/01/10 05:12:46;;;;;;;15.53;9.37;;;7.40;99.90;;;;;;4995003;28;20559;-70
2023/01/10 05:15:16;;;;;;;13.60;9.60;;;7.30;99.90;;;;;;4994938;28;20196;-71
2023/01/10 05:17:45;;;;;;;14.50;9.40;;;7.30;99.90;;;;;;4994993;28;20678;-70
2023/01/10 05:20:14;;;;;;;12.20;9.13;;;7.30;99.90;;;;;;4994935;28;20283;-71
2023/01/10 05:22:43;;;;;;;16.67;9.67;;;7.30;99.90;;;;;;4994755;28;20581;-71
2023/01/10 05:25:11;;;;;;;17.53;10.00;;;7.20;99.90;;;;;;4993704;28;20287;-72
2023/01/10 05:27:42;;;;;;;15.33;9.90;;;7.20;99.90;;;;;;4994959;28;20196;-71
2023/01/10 05:30:13;;;;;;;17.77;10.50;;;7.20;99.90;;;;;;4994595;28;20220;-71
2023/01/10 05:32:43;;;;;;;15.43;10.70;;;7.30;99.90;;;;;;4994586;28;20439;-69
2023/01/10 05:35:12;;;;;;;12.83;9.07;;;7.30;99.90;;;;;;4994590;28;20206;-72
2023/01/10 05:37:41;;;;;;;22.27;10.93;;;7.30;99.90;;;;;;4994534;28;20226;-70
2023/01/10 05:40:11;;;;;;;14.30;10.10;;;7.30;99.90;;;;;;4994229;28;20204;-71
2023/01/10 05:42:55;;;;;;;16.00;10.90;;;7.30;99.90;;;;;;4994374;28;20213;-70
2023/01/10 05:45:24;;;;;;;16.23;10.00;;;7.30;99.90;;;;;;4994460;28;20195;-70
2023/01/10 05:47:54;;;;;;;15.33;9.80;;;7.30;99.90;;;;;;4994439;28;20295;-69
2023/01/10 05:50:23;;;;;;;12.57;9.53;;;7.30;99.90;;;;;;4994201;28;20215;-69
2023/01/10 05:52:52;;;;;;;12.10;9.43;;;7.30;99.90;;;;;;4994191;28;20548;-70
2023/01/10 05:55:20;;;;;;;12.90;8.87;;;7.30;99.90;;;;;;4994093;28;20712;-70
2023/01/10 05:57:49;;;;;;;16.63;8.83;;;7.20;99.90;;;;;;4993826;28;20230;-70
2023/01/10 06:00:19;;;;;;;17.10;9.87;;;7.20;99.90;;;;;;4993991;28;20202;-70
2023/01/10 06:02:48;;;;;;;14.17;10.03;;;7.30;99.90;;;;;;4994066;28;20198;-70
2023/01/10 06:05:18;;;;;;;12.13;9.50;;;7.20;99.90;;;;;;4993971;28;20604;-70
2023/01/10 06:07:47;;;;;;;12.33;9.23;;;7.20;99.90;;;;;;4993973;28;20199;-69
2023/01/10 06:10:17;;;;;;;15.27;9.57;;;7.20;99.90;;;;;;4993789;28;20228;-70
2023/01/10 06:12:48;;;;;;;14.80;9.67;;;7.20;99.90;;;;;;4993867;28;20278;-71
2023/01/10 06:15:17;;;;;;;15.13;9.23;;;7.10;99.90;;;;;;4993832;28;20761;-71
2023/01/10 06:17:46;;;;;;;17.37;9.33;;;7.10;99.90;;;;;;4993767;28;20736;-70
2023/01/10 06:20:15;;;;;;;16.73;9.57;;;7.00;99.90;;;;;;4993660;28;20254;-70
2023/01/10 06:22:45;;;;;;;12.73;9.03;;;7.00;99.90;;;;;;4993747;28;20200;-70
2023/01/10 06:25:14;;;;;;;12.63;9.23;;;7.00;99.90;;;;;;4993626;28;20682;-70
2023/01/10 06:27:44;;;;;;;13.17;8.97;;;7.00;99.90;;;;;;4993463;28;20198;-70
2023/01/10 06:30:14;;;;;;;13.93;10.00;;;7.10;99.90;;;;;;4993501;28;20274;-71
2023/01/10 06:32:42;;;;;;;16.43;9.47;;;7.00;99.90;;;;;;4993437;28;20283;-68
2023/01/10 06:35:11;;;;;;;16.00;10.73;;;7.00;99.90;;;;;;4993494;28;20188;-69
2023/01/10 06:37:40;;;;;;;15.80;9.57;;;7.00;99.90;;;;;;4993575;28;20203;-69
2023/01/10 06:40:12;;;;;;;19.43;11.13;;;6.90;99.90;;;;;;4993183;28;20230;-69
2023/01/10 06:42:41;;;;;;;23.37;11.60;;;7.00;99.90;;;;;;4993434;28;20249;-69
2023/01/10 06:45:11;;;;;;;25.90;11.90;;;7.00;99.90;;;;;;4993248;28;20199;-68
2023/01/10 06:47:40;;;;;;;20.33;12.07;;;7.00;99.90;;;;;;4993373;28;20184;-69
2023/01/10 06:50:10;;;;;;;22.47;12.13;;;7.00;99.90;;;;;;4993086;28;20229;-69
2023/01/10 06:52:40;;;;;;;19.77;13.47;;;7.00;99.90;;;;;;4993164;28;20202;-70
2023/01/10 06:55:11;;;;;;;25.00;12.47;;;7.00;99.90;;;;;;4992939;28;20200;-69
2023/01/10 06:57:43;;;;;;;27.13;13.43;;;7.00;99.90;;;;;;4932804;29;20245;-70
2023/01/10 07:00:12;;;;;;;23.30;11.77;;;7.00;99.90;;;;;;4933005;29;20216;-71
2023/01/10 07:02:41;;;;;;;19.57;10.80;;;7.00;99.90;;;;;;4886182;29;20232;-70
2023/01/10 07:05:10;;;;;;;17.73;12.57;;;6.90;99.90;;;;;;4932918;29;20238;-70
2023/01/10 07:07:39;;;;;;;19.10;11.47;;;6.90;99.90;;;;;;4932898;29;20288;-70
2023/01/10 07:10:11;;;;;;;20.20;10.97;;;6.90;99.90;;;;;;4932821;29;20311;-71
2023/01/10 07:12:39;;;;;;;17.43;10.97;;;6.80;99.90;;;;;;4932108;29;20649;-69
2023/01/10 07:15:10;;;;;;;17.17;11.80;;;6.70;99.90;;;;;;4951908;28;20215;-69
2023/01/10 07:17:39;;;;;;;20.77;11.60;;;6.80;99.90;;;;;;5004600;28;20668;-71
2023/01/10 07:20:08;;;;;;;18.50;11.43;;;6.80;99.90;;;;;;5012661;28;20206;-70
2023/01/10 07:22:38;;;;;;;20.50;11.80;;;6.70;99.90;;;;;;5011733;28;20257;-71
2023/01/10 07:25:07;;;;;;;27.17;13.23;;;6.70;99.90;;;;;;5012294;28;20198;-69
2023/01/10 07:27:42;;;;;;;19.03;11.43;;;6.70;99.90;;;;;;5012024;28;20664;-71
2023/01/10 07:30:11;;;;;;;19.53;11.70;;;6.70;99.90;;;;;;5012199;28;20290;-70
2023/01/10 07:32:40;;;;;;;18.13;11.47;;;6.70;99.90;;;;;;5012190;28;20750;-70
2023/01/10 07:35:09;;;;;;;21.07;11.03;;;6.70;99.90;;;;;;5012211;28;20284;-72
2023/01/10 07:37:39;;;;;;;18.77;10.80;;;6.70;99.90;;;;;;5011096;28;20690;-69
2023/01/10 07:40:09;;;;;;;19.73;12.23;;;6.70;99.90;;;;;;4992235;28;20191;-69
2023/01/10 07:42:40;;;;;;;17.13;12.07;;;6.70;99.90;;;;;;4992382;28;20207;-70
2023/01/10 07:45:09;;;;;;;22.00;12.67;;;6.70;99.90;;;;;;4992574;28;20213;-69
2023/01/10 07:47:38;;;;;;;21.70;13.47;;;6.70;99.90;;;;;;4996643;28;20193;-70
2023/01/10 07:50:09;;;;;;;18.27;12.80;;;6.70;99.90;;;;;;5005706;28;20876;-70
2023/01/10 07:52:38;;;;;;;24.53;11.47;;;6.70;99.90;;;;;;5001060;28;20560;-70
2023/01/10 07:55:07;;;;;;;22.20;13.27;;;6.70;99.90;;;;;;4995099;28;20209;-70
2023/01/10 07:57:36;;;;;;;22.10;13.23;;;6.70;99.90;;;;;;5000740;28;20242;-70
2023/01/10 08:00:08;;;;;;;24.57;14.10;;;6.70;99.90;;;;;;4995671;28;20262;-70
2023/01/10 08:02:37;;;;;;;24.17;14.53;;;6.70;99.90;;;;;;5006840;28;20195;-70
2023/01/10 08:05:06;;;;;;;24.30;14.13;;;6.80;99.90;;;;;;5011909;28;20210;-70
2023/01/10 08:07:35;;;;;;;25.63;14.33;;;6.80;99.90;;;;;;5011592;28;20252;-70
2023/01/10 08:10:04;;;;;;;22.23;13.40;;;6.80;99.90;;;;;;5011765;28;20273;-69
2023/01/10 08:12:33;;;;;;;31.60;20.63;;;6.80;99.90;;;;;;5011733;28;20582;-69
2023/01/10 08:15:02;;;;;;;37.17;22.50;;;6.80;99.90;;;;;;5011917;28;20664;-69
2023/01/10 08:17:35;;;;;;;26.70;16.50;;;6.80;99.90;;;;;;5011237;28;20194;-68
2023/01/10 08:20:04;;;;;;;26.30;14.00;;;6.80;99.90;;;;;;5011592;28;20194;-70
2023/01/10 08:22:33;;;;;;;20.07;12.53;;;6.80;99.90;;;;;;5011985;28;20293;-69
2023/01/10 08:25:02;;;;;;;27.20;15.47;;;6.90;99.90;;;;;;5011503;28;20198;-70
2023/01/10 08:27:31;;;;;;;33.97;17.50;;;6.90;99.90;;;;;;5011398;28;20201;-71
2023/01/10 08:30:00;;;;;;;20.07;13.83;;;6.90;99.90;;;;;;5011637;28;20226;-70
2023/01/10 08:32:28;;;;;;;20.87;11.93;;;6.90;99.90;;;;;;5011469;28;20218;-70
2023/01/10 08:34:59;;;;;;;18.77;13.00;;;6.90;99.90;;;;;;5013485;28;20529;-67
2023/01/10 08:37:28;;;;;;;25.00;13.83;;;6.90;99.90;;;;;;5015069;28;20278;-70
2023/01/10 08:39:56;;;;;;;27.00;14.07;;;6.90;99.90;;;;;;5014705;28;20195;-68
2023/01/10 08:42:25;;;;;;;28.40;13.53;;;6.90;99.90;;;;;;5015009;28;20239;-69
2023/01/10 08:44:54;;;;;;;26.10;12.87;;;6.90;99.90;;;;;;5014996;28;20195;-69
2023/01/10 08:47:23;;;;;;;22.57;11.73;;;6.90;99.90;;;;;;5014460;28;20675;-69
2023/01/10 08:49:52;;;;;;;16.57;11.00;;;6.80;99.90;;;;;;5015065;28;20187;-69
2023/01/10 08:52:23;;;;;;;24.97;14.10;;;6.90;99.90;;;;;;5014598;28;20256;-70
2023/01/10 08:54:52;;;;;;;26.40;12.50;;;6.90;99.90;;;;;;5013529;28;20679;-69
2023/01/10 08:57:21;;;;;;;19.83;11.97;;;7.00;99.90;;;;;;5003724;28;20273;-69
2023/01/10 08:59:50;;;;;;;20.43;12.90;;;7.00;99.90;;;;;;5006326;28;20211;-70
2023/01/10 09:02:18;;;;;;;22.90;12.97;;;7.10;99.90;;;;;;5008761;28;20201;-70
2023/01/10 09:04:47;;;;;;;20.50;13.83;;;7.10;99.90;;;;;;5008697;28;20286;-71
2023/01/10 09:07:16;;;;;;;22.37;12.77;;;7.20;99.90;;;;;;5014540;28;20253;-70
2023/01/10 09:09:47;;;;;;;32.57;14.57;;;7.20;99.90;;;;;;5014356;28;20195;-70
2023/01/10 09:15:02;;;;;;;24.93;14.97;;;7.20;99.90;;;;;;5014457;28;20563;-69
2023/01/10 09:17:30;;;;;;;31.73;18.30;;;7.30;99.90;;;;;;5014095;28;20226;-70
2023/01/10 09:19:59;;;;;;;28.73;18.43;;;7.30;99.90;;;;;;5014310;28;20191;-70
2023/01/10 09:22:28;;;;;;;29.63;20.17;;;7.30;99.90;;;;;;5014179;28;20680;-70
2023/01/10 09:24:59;;;;;;;34.33;21.63;;;7.40;99.90;;;;;;5014221;28;20238;-67
2023/01/10 09:27:27;;;;;;;35.60;22.17;;;7.50;99.90;;;;;;5013978;28;20214;-69
2023/01/10 09:29:56;;;;;;;27.27;18.37;;;7.50;99.90;;;;;;5014002;28;20191;-68
2023/01/10 09:32:25;;;;;;;35.60;20.73;;;7.50;99.90;;;;;;5014019;28;20285;-68
2023/01/10 09:34:54;;;;;;;31.23;20.07;;;7.40;99.90;;;;;;5014138;28;20220;-68
2023/01/10 09:37:22;;;;;;;28.50;15.27;;;7.50;99.90;;;;;;5013940;28;20563;-70
2023/01/10 09:39:52;;;;;;;32.00;19.57;;;7.50;99.90;;;;;;5013874;28;20206;-67
2023/01/10 09:42:37;;;;;;;29.23;18.93;;;7.50;99.90;;;;;;5010781;28;20226;-69
2023/01/10 09:45:15;;;;;;;25.83;15.40;;;7.50;99.90;;;;;;5013662;28;20263;-68
2023/01/10 09:47:53;;;;;;;22.30;14.40;;;7.50;99.90;;;;;;5014015;28;20680;-70
2023/01/10 09:50:32;;;;;;;23.43;13.83;;;7.50;99.90;;;;;;5013865;28;20274;-68
2023/01/10 09:53:08;;;;;;;20.20;13.83;;;7.50;99.90;;;;;;5013712;28;20383;-70
2023/01/10 09:55:39;;;;;;;25.33;15.47;;;7.40;99.90;;;;;;5013795;28;20198;-70
2023/01/10 09:58:15;;;;;;;22.83;14.00;;;7.50;99.90;;;;;;5013307;28;20277;-69
2023/01/10 10:00:48;;;;;;;26.93;14.43;;;7.50;99.90;;;;;;5013756;28;20202;-70
2023/01/10 10:03:24;;;;;;;23.17;13.33;;;7.50;99.90;;;;;;5013671;28;20604;-69
2023/01/10 10:05:53;;;;;;;26.57;13.93;;;7.50;99.90;;;;;;5013636;28;20669;-69
2023/01/10 10:08:36;;;;;;;25.23;15.00;;;7.50;99.90;;;;;;5013444;28;20207;-68
2023/01/10 10:11:23;;;;;;;25.27;13.33;;;7.60;99.90;;;;;;5013443;28;20211;-69
2023/01/10 10:14:03;;;;;;;19.90;13.00;;;7.70;99.90;;;;;;5013276;28;20256;-69
2023/01/10 10:16:54;;;;;;;19.53;11.67;;;7.80;99.90;;;;;;5012018;28;20202;-70
2023/01/10 10:19:33;;;;;;;40.77;24.97;;;7.80;99.90;;;;;;5009544;28;20277;-70
2023/01/10 10:22:08;;;;;;;20.40;13.63;;;7.80;99.90;;;;;;4996043;28;20200;-68
2023/01/10 10:24:50;;;;;;;18.20;12.93;;;7.80;99.90;;;;;;5001375;28;20265;-69
2023/01/10 10:27:23;;;;;;;21.67;13.73;;;7.80;99.90;;;;;;4993254;28;20208;-70
2023/01/10 10:30:16;;;;;;;24.57;15.87;;;7.90;99.90;;;;;;4993307;28;20208;-69
2023/01/10 10:33:05;;;;;;;23.53;13.33;;;7.90;99.90;;;;;;5008158;28;20227;-69
2023/01/10 10:35:39;;;;;;;19.73;13.37;;;8.00;99.90;;;;;;5013036;28;20587;-72
2023/01/10 10:38:14;;;;;;;20.97;13.10;;;8.00;99.90;;;;;;5012916;28;20664;-70
2023/01/10 10:40:44;;;;;;;20.90;12.90;;;8.10;99.90;;;;;;5013070;28;20205;-71
2023/01/10 10:43:20;;;;;;;20.23;12.97;;;8.10;99.90;;;;;;5010755;28;20253;-71
2023/01/10 10:45:55;;;;;;;18.13;12.80;;;8.10;99.90;;;;;;4993432;28;20617;-73
2023/01/10 10:48:29;;;;;;;17.77;13.23;;;8.20;99.90;;;;;;4993250;28;20210;-73
2023/01/10 10:51:05;;;;;;;18.43;13.93;;;8.30;99.90;;;;;;4993402;28;20203;-73
2023/01/10 10:53:34;;;;;;;21.17;13.97;;;8.30;99.90;;;;;;4993214;28;20223;-74
2023/01/10 10:56:06;;;;;;;59.27;36.43;;;8.40;99.90;;;;;;4993180;28;20283;-73
2023/01/10 10:58:35;;;;;;;60.87;38.30;;;8.40;99.90;;;;;;4992347;28;20254;-72
2023/01/10 11:01:06;;;;;;;56.40;33.73;;;8.50;99.90;;;;;;4993216;28;20622;-72
2023/01/10 11:03:42;;;;;;;23.97;15.43;;;8.50;99.90;;;;;;4993230;28;20204;-72
2023/01/10 11:06:11;;;;;;;26.20;15.63;;;8.60;99.90;;;;;;4993195;28;20191;-74
2023/01/10 11:08:43;;;;;;;27.97;17.47;;;8.60;99.90;;;;;;4993182;28;20196;-72
2023/01/10 11:11:19;;;;;;;19.07;14.40;;;8.50;99.90;;;;;;4993089;28;20231;-72
2023/01/10 11:13:53;;;;;;;23.63;15.10;;;8.50;99.90;;;;;;4992850;28;20233;-73
2023/01/10 11:16:43;;;;;;;27.50;15.70;;;8.50;99.90;;;;;;4992980;28;20203;-73
2023/01/10 11:19:20;;;;;;;32.17;18.43;;;8.40;99.90;;;;;;4992908;28;20208;-73
2023/01/10 11:21:58;;;;;;;36.43;21.07;;;8.50;99.90;;;;;;4992949;28;20199;-73
2023/01/10 11:24:32;;;;;;;29.20;18.93;;;8.40;99.90;;;;;;4992944;28;20214;-73
2023/01/10 11:27:04;;;;;;;28.53;18.23;;;8.40;99.90;;;;;;4992678;28;20912;-72
2023/01/10 11:29:39;;;;;;;31.70;18.23;;;8.40;99.90;;;;;;4992902;28;20218;-73
2023/01/10 11:32:14;;;;;;;29.07;19.20;;;8.30;99.90;;;;;;4992961;28;20203;-72
2023/01/10 11:34:49;;;;;;;28.40;18.80;;;8.20;99.90;;;;;;4992823;28;20223;-72
2023/01/10 11:37:24;;;;;;;33.53;19.77;;;8.30;99.90;;;;;;4992821;28;20199;-72
2023/01/10 11:40:19;;;;;;;30.10;19.73;;;8.30;99.90;;;;;;4992857;28;20222;-72
2023/01/10 11:42:48;;;;;;;32.63;18.77;;;8.30;99.90;;;;;;4992778;28;20571;-72
2023/01/10 11:45:32;;;;;;;34.50;19.83;;;8.30;99.90;;;;;;4992636;28;20688;-72
2023/01/10 11:48:09;;;;;;;34.43;18.47;;;8.30;99.90;;;;;;4992875;28;20246;-73
2023/01/10 11:50:44;;;;;;;34.33;19.90;;;8.30;99.90;;;;;;4992678;28;20192;-73
2023/01/10 11:53:34;;;;;;;29.80;19.23;;;8.30;99.90;;;;;;4992611;28;20277;-73
2023/01/10 11:56:03;;;;;;;32.43;19.07;;;8.30;99.90;;;;;;4992435;28;20212;-75
2023/01/10 11:58:35;;;;;;;33.70;20.87;;;8.30;99.90;;;;;;4992409;28;20306;-72
2023/01/10 12:01:04;;;;;;;39.83;23.17;;;8.30;99.90;;;;;;4997620;28;20609;-72
2023/01/10 12:03:39;;;;;;;41.63;22.60;;;8.30;99.90;;;;;;5012104;28;20217;-72
2023/01/10 12:06:14;;;;;;;38.67;23.30;;;8.30;99.90;;;;;;5012170;28;20639;-72
2023/01/10 12:08:44;;;;;;;38.33;22.30;;;8.40;99.90;;;;;;5013423;28;20210;-72
2023/01/10 12:11:26;;;;;;;34.03;20.40;;;8.40;99.90;;;;;;5015855;28;20197;-72
2023/01/10 12:13:57;;;;;;;38.13;23.67;;;8.50;99.90;;;;;;5015511;28;20728;-73
2023/01/10 12:16:27;;;;;;;40.60;23.53;;;8.50;99.90;;;;;;5015681;28;20214;-72
2023/01/10 12:18:59;;;;;;;41.57;24.33;;;8.40;99.90;;;;;;5015679;28;20282;-72
2023/01/10 12:21:33;;;;;;;39.20;22.67;;;8.50;99.90;;;;;;5015604;28;20205;-72
2023/01/10 12:24:06;;;;;;;36.93;23.17;;;8.50;99.90;;;;;;5015491;28;20302;-72
2023/01/10 12:26:36;;;;;;;37.50;25.40;;;8.50;99.90;;;;;;5015398;28;20278;-72
2023/01/10 12:29:11;;;;;;;33.40;21.53;;;8.50;99.90;;;;;;5015282;28;20199;-72
2023/01/10 12:31:40;;;;;;;29.50;19.27;;;8.60;99.90;;;;;;5015502;28;20203;-72
2023/01/10 12:34:18;;;;;;;29.30;19.83;;;8.50;99.90;;;;;;5014460;28;20214;-71
2023/01/10 12:37:01;;;;;;;30.67;19.30;;;8.50;99.90;;;;;;4999429;28;20225;-72
2023/01/10 12:39:33;;;;;;;31.60;19.73;;;8.60;99.90;;;;;;5015333;28;20225;-73
2023/01/10 12:45:05;;;;;;;32.73;19.63;;;8.60;99.90;;;;;;4988280;28;20262;-72
2023/01/10 12:47:43;;;;;;;30.60;19.87;;;8.60;99.90;;;;;;4993489;28;20274;-73
2023/01/10 12:50:17;;;;;;;33.93;19.43;;;8.60;99.90;;;;;;4993323;28;20608;-73
2023/01/10 12:52:49;;;;;;;35.23;19.67;;;8.60;99.90;;;;;;4993254;28;20692;-73
2023/01/10 12:55:19;;;;;;;25.70;19.33;;;8.60;99.90;;;;;;4993113;28;20239;-73
2023/01/10 12:57:52;;;;;;;30.17;19.20;;;8.60;99.90;;;;;;4993051;28;20718;-73
2023/01/10 13:00:24;;;;;;;32.33;20.37;;;8.50;99.90;;;;;;4991526;28;20247;-73
2023/01/10 13:02:55;;;;;;;35.63;21.53;;;8.50;99.90;;;;;;4973683;28;20223;-72
2023/01/10 13:05:28;;;;;;;38.80;22.37;;;8.50;99.90;;;;;;4973471;28;20671;-73
2023/01/10 13:08:03;;;;;;;31.53;21.33;;;8.50;99.90;;;;;;4973621;28;20209;-73
2023/01/10 13:10:33;;;;;;;34.33;21.60;;;8.60;99.90;;;;;;4973362;28;20205;-73
2023/01/10 13:13:10;;;;;;;33.63;20.87;;;8.60;99.90;;;;;;4973395;28;20204;-72
2023/01/10 13:15:47;;;;;;;41.77;22.53;;;8.60;99.90;;;;;;4973359;28;20240;-73
2023/01/10 13:18:23;;;;;;;43.57;24.60;;;8.50;99.90;;;;;;4978392;28;20210;-72
2023/01/10 13:21:03;;;;;;;38.10;24.67;;;8.50;99.90;;;;;;4972584;28;20196;-71